Saltillo, Texas
Current Conditions -  °F | °C
As of 1:35 AM on Wednesday 26 Nov 2014 (Local Time) from KSLR Reporting Station
Clear Clear  
Wind Chill: 43°   Ceiling: Unl
Heat Index: 46°   Visibility: 10mi
Dew Point: 32°   Wind: 6mph
Humidity: 57%   Direction: 190°S
Pressure: 30.11"   Gusts: NA
Location:  33.18°N, 95.33°W
Report Text: KSLR 260735Z AUTO 19005KT 10SM CLR 08/00 A3011 RMK AO2 T00791002
Loading
Personal Weather Stations






























Interactive Weather Map New forecast layout! Learn more

10-Day Weather Forecast

Advertisements
Track Severe Weather on mobile